createdAt,value
2019-05-03T06:53:41.731Z,7.6
2019-05-03T06:58:41.521Z,7.6
2019-05-03T07:03:44.732Z,7.6
2019-05-03T07:08:47.253Z,7.6
2019-05-03T07:13:48.642Z,7.6
2019-05-03T07:18:51.099Z,7.5
2019-05-03T07:23:55.126Z,7.6
2019-05-03T07:28:56.261Z,7.5
2019-05-03T07:33:58.648Z,7.6
2019-05-03T07:39:00.914Z,7.9
2019-05-03T07:44:05.185Z,7.9
2019-05-03T07:49:05.816Z,7.8
2019-05-03T07:54:08.678Z,7.8
2019-05-03T07:59:10.973Z,8.1
2019-05-03T08:04:15.255Z,8.4
2019-05-03T08:09:16.555Z,8.6
2019-05-03T08:14:18.366Z,8.7
2019-05-03T08:19:23.226Z,8.8
2019-05-03T08:24:25.160Z,8.9
2019-05-03T08:29:25.480Z,9
2019-05-03T08:34:27.975Z,8.9
2019-05-03T08:39:30.452Z,9
2019-05-03T08:44:35.099Z,9.2
2019-05-03T08:49:35.333Z,9.3
2019-05-03T08:54:37.856Z,9.3
2019-05-03T08:59:40.236Z,9.5
2019-05-03T09:04:43.281Z,9.6
2019-05-03T09:09:46.214Z,9.6
2019-05-03T09:14:48.447Z,9.7
2019-05-03T09:19:50.174Z,10
2019-05-03T09:24:54.539Z,10.8
2019-05-03T09:29:55.787Z,11.4
2019-05-03T09:34:57.446Z,12
2019-05-03T09:39:59.939Z,12.2
2019-05-03T09:45:02.487Z,12.2
2019-05-03T09:50:04.880Z,12.3
2019-05-03T10:00:09.830Z,12.6
2019-05-03T10:05:12.242Z,12.6
2019-05-03T10:10:15.369Z,12.4
2019-05-03T10:15:17.133Z,12.4
2019-05-03T10:20:19.623Z,12.2
2019-05-03T10:25:22.235Z,11.7
2019-05-03T10:30:24.574Z,11.1
2019-05-03T10:35:27.306Z,11.2
2019-05-03T10:40:29.593Z,11.5
2019-05-03T10:45:32.024Z,11.4
2019-05-03T10:50:34.925Z,11.6
2019-05-03T10:55:38.070Z,11.6
2019-05-03T11:00:45.898Z,11.9
2019-05-03T11:10:44.528Z,12.2
2019-05-03T11:15:46.592Z,11.6
2019-05-03T11:20:49.145Z,11.1
2019-05-03T11:26:00.038Z,11.2
2019-05-03T11:30:59.666Z,11.8
2019-05-03T11:35:56.462Z,11.8
2019-05-03T11:40:58.945Z,11.3
2019-05-03T11:46:01.491Z,11.5
2019-05-03T11:51:03.980Z,11.9
2019-05-03T11:56:14.808Z,12.5
2019-05-03T12:01:15.117Z,12.6
2019-05-03T12:06:11.183Z,12.3
2019-05-03T12:11:15.040Z,12.1
2019-05-03T12:16:23.213Z,12.1
2019-05-03T12:21:20.061Z,12.2
2019-05-03T12:26:40.024Z,12.2
2019-05-03T12:31:30.258Z,12.1
2019-05-03T12:36:26.334Z,12.1
2019-05-03T12:41:28.547Z,12.1
2019-05-03T12:46:31.142Z,12.1
2019-05-03T12:51:34.484Z,12.3
2019-05-03T12:56:39.437Z,12.6
2019-05-03T13:01:41.490Z,13.5
2019-05-03T13:06:40.693Z,14.2
2019-05-03T13:11:52.750Z,14.6
2019-05-03T13:16:45.865Z,14.9
2019-05-03T13:21:48.045Z,15.4
2019-05-03T13:26:53.188Z,16.1
2019-05-03T13:31:58.962Z,16.7
2019-05-03T13:36:55.428Z,16.8
2019-05-03T13:41:58.324Z,17
2019-05-03T13:47:00.345Z,17.2
2019-05-03T13:52:05.067Z,17.4
2019-05-03T14:07:10.508Z,16.3
2019-05-03T14:12:12.628Z,16.4
2019-05-03T14:17:15.100Z,16.6
2019-05-03T14:22:17.530Z,16.7
2019-05-03T14:27:20.020Z,16.4
2019-05-03T14:32:26.476Z,15.9
2019-05-03T14:37:24.970Z,15.5
2019-05-03T14:42:27.362Z,15.4
2019-05-03T14:47:29.819Z,15.3
2019-05-03T14:52:34.753Z,14.8
2019-05-03T14:57:49.827Z,14.3
2019-05-03T15:02:43.396Z,14
2019-05-03T15:07:39.878Z,13.7
2019-05-03T15:12:42.410Z,13.4
2019-05-03T15:17:45.704Z,13.1
2019-05-03T15:22:47.107Z,12.8
2019-05-03T15:27:49.482Z,12.5
2019-05-03T15:32:57.526Z,12.3
2019-05-03T15:37:55.734Z,12.2
2019-05-03T15:42:56.915Z,12.3
2019-05-03T15:47:59.358Z,12.3
2019-05-03T15:53:01.781Z,12.3
2019-05-03T15:58:04.723Z,12
2019-05-03T16:03:08.799Z,11.9
2019-05-03T16:08:09.132Z,11.9
2019-05-03T16:13:11.622Z,11.9
2019-05-03T16:18:14.784Z,11.9
2019-05-03T16:23:16.830Z,11.7
2019-05-03T16:28:20.395Z,11.5
2019-05-03T16:33:26.805Z,11.3
2019-05-03T16:38:24.834Z,11.1
2019-05-03T16:43:26.380Z,11
2019-05-03T16:48:29.024Z,10.9
2019-05-03T16:53:31.737Z,10.8
2019-05-03T16:58:35.331Z,10.8
2019-05-03T17:03:39.038Z,10.7
2019-05-03T17:08:38.723Z,10.6
2019-05-03T17:13:41.095Z,10.6
2019-05-03T17:18:44.625Z,10.5
2019-05-03T17:23:46.645Z,10.6
2019-05-03T17:28:48.566Z,10.5
2019-05-03T17:33:53.828Z,10.4
2019-05-03T17:38:55.069Z,10.2
2019-05-03T17:43:55.864Z,10.1
2019-05-03T17:48:58.277Z,10
2019-05-03T17:54:01.097Z,9.8
2019-05-03T17:59:04.544Z,9.7
2019-05-03T18:04:09.263Z,9.6
2019-05-03T18:09:08.138Z,9.5
2019-05-03T18:14:10.587Z,9.4
2019-05-03T18:19:13.126Z,9.3
2019-05-03T18:24:15.919Z,9.1
2019-05-03T18:29:18.003Z,9
2019-05-03T18:34:22.443Z,8.9
2019-05-03T18:39:22.889Z,8.8
2019-05-03T18:44:25.342Z,8.6
2019-05-03T18:49:27.885Z,8.5
2019-05-03T18:54:30.666Z,8.3
2019-05-03T18:59:32.678Z,8.1
2019-05-03T19:04:37.830Z,7.9
2019-05-03T19:09:37.651Z,7.8
2019-05-03T19:14:40.128Z,7.7
2019-05-03T19:19:44.526Z,7.6
2019-05-03T19:24:45.328Z,7.6
2019-05-03T19:29:47.461Z,7.6
2019-05-03T19:34:51.369Z,7.5
2019-05-03T19:39:52.405Z,7.4
2019-05-03T19:44:55.248Z,7.3
2019-05-03T19:49:57.297Z,7.2
2019-05-03T19:55:00.058Z,7.1
2019-05-03T20:00:02.331Z,7.1
2019-05-03T20:05:05.784Z,7.1
2019-05-03T20:10:07.316Z,7.1
2019-05-03T20:15:09.950Z,7.1
2019-05-03T20:20:12.068Z,7.1
2019-05-03T20:25:15.205Z,6.9
2019-05-03T20:30:16.927Z,6.6
2019-05-03T20:35:19.654Z,6.4
2019-05-03T20:40:21.835Z,6.1
2019-05-03T20:45:24.861Z,5.9
2019-05-03T20:50:26.795Z,5.9
2019-05-03T20:55:30.002Z,5.8
2019-05-03T21:00:31.698Z,5.9
2019-05-03T21:05:35.287Z,6
2019-05-03T21:10:36.669Z,6
2019-05-03T21:15:39.212Z,6.1
2019-05-03T21:20:41.677Z,6.1
2019-05-03T21:26:03.369Z,6
2019-05-03T21:30:46.459Z,5.9
2019-05-03T21:35:48.915Z,5.8
2019-05-03T21:40:51.370Z,5.7
2019-05-03T21:45:54.364Z,5.6
2019-05-03T21:50:56.372Z,5.4
2019-05-03T21:55:58.749Z,5.3
2019-05-03T22:01:01.207Z,5.1
2019-05-03T22:06:03.627Z,5
2019-05-03T22:11:06.078Z,4.9
2019-05-03T22:16:09.094Z,5
2019-05-03T22:21:10.990Z,5
2019-05-03T22:26:15.439Z,5
2019-05-03T22:31:16.110Z,4.9
2019-05-03T22:36:18.703Z,4.7
2019-05-03T22:41:20.811Z,4.6
2019-05-03T22:46:24.902Z,4.5
2019-05-03T22:51:25.747Z,4.4
2019-05-03T22:56:28.696Z,4.3
2019-05-03T23:01:30.870Z,4.3
2019-05-03T23:06:33.279Z,4.2
2019-05-03T23:11:35.797Z,3.9
2019-05-03T23:16:38.157Z,3.7
2019-05-03T23:21:40.515Z,3.6
2019-05-03T23:26:45.115Z,3.5
2019-05-03T23:31:45.821Z,3.3
2019-05-03T23:36:47.926Z,3.3
2019-05-03T23:41:50.383Z,3.3
2019-05-03T23:46:54.518Z,3.3
2019-05-03T23:51:55.312Z,3.3
2019-05-03T23:56:58.101Z,3.2
